This is the latest recevied weather packets stored in our database for station/object KD0KHX-10. If no packets are shown the sender has not sent any weather packets the latest 10 day(s).
| Time | Temp. | Humidity | Pressure | Rain* | Wind** | Luminosity | Snow |
|---|---|---|---|---|---|---|---|
| 1777510338 | 11.11° C | 70% | 1012.9 hPa | 0 mm | - | - | - |
| 1777509903 | 11.67° C | 68% | 1012.7 hPa | 0 mm | - | - | - |
| 1777509603 | 11.67° C | 67% | 1012.7 hPa | 0 mm | - | - | - |
| 1777509437 | 12.22° C | 66% | 1012.6 hPa | 0 mm | - | - | - |
| 1777509003 | 12.22° C | 61% | 1012.3 hPa | 0 mm | - | - | - |
| 1777508703 | 12.22° C | 58% | 1012.2 hPa | 0 mm | - | - | - |
| 1777508403 | 12.22° C | 55% | 1012.2 hPa | 0 mm | - | - | - |
| 1777508103 | 12.22° C | 54% | 1012.1 hPa | 0 mm | - | - | - |
| 1777508073 | 12.22° C | 54% | 1012.1 hPa | 0 mm | - | - | - |
| 1777507637 | 12.78° C | 55% | 1011.9 hPa | 0 mm | - | - | - |
| 1777507203 | 12.78° C | 54% | 1011.8 hPa | 0 mm | - | - | - |
| 1777507037 | 12.78° C | 54% | 1011.8 hPa | 0 mm | - | - | - |
| 1777506603 | 12.78° C | 54% | 1011.8 hPa | 0 mm | - | - | - |
| 1777506437 | 12.78° C | 54% | 1011.8 hPa | 0 mm | - | - | - |
| 1777506003 | 13.33° C | 54% | 1011.7 hPa | 0 mm | - | - | - |
| 1777505703 | 13.33° C | 55% | 1011.8 hPa | 0 mm | - | - | - |
| 1777505538 | 13.33° C | 54% | 1011.8 hPa | 0 mm | - | - | - |
| 1777505372 | 13.33° C | 53% | 1011.7 hPa | 0 mm | - | - | - |
| 1777504803 | 14.44° C | 50% | 1011.6 hPa | 0 mm | - | - | - |
| 1777504503 | 14.44° C | 49% | 1011.6 hPa | 0 mm | - | - | - |
| 1777504203 | 15° C | 48% | 1011.5 hPa | 0 mm | - | - | - |
| 1777503903 | 15° C | 50% | 1011.5 hPa | 0 mm | - | - | - |
| 1777503603 | 14.44° C | 48% | 1011.5 hPa | 0 mm | - | - | - |
| 1777503574 | 14.44° C | 48% | 1011.5 hPa | 0 mm | - | - | - |
| 1777503003 | 14.44° C | 49% | 1011.5 hPa | 0 mm | - | - | - |
* Rain latest hour (hover to see other rain measurements)
** Current wind speed in m/s (hover to see current wind gust speed)